createdAt,value
2018-06-11T00:02:23.919Z,98874.36
2018-06-11T00:04:52.485Z,98873.02
2018-06-11T00:07:21.034Z,98870.71
2018-06-11T00:09:49.646Z,98870.55
2018-06-11T00:12:18.191Z,98876.89
2018-06-11T00:14:46.791Z,98882.30
2018-06-11T00:17:15.341Z,98880.42
2018-06-11T00:19:50.468Z,98882.46
2018-06-11T00:22:19.018Z,98881.63
2018-06-11T00:24:47.598Z,98882.89
2018-06-11T00:27:16.155Z,98877.61
2018-06-11T00:29:45.292Z,98878.63
2018-06-11T00:32:13.837Z,98881.63
2018-06-11T00:34:42.421Z,98883.52
2018-06-11T00:37:10.969Z,98879.19
2018-06-11T00:39:39.557Z,98876.37
2018-06-11T00:42:08.172Z,98873.62
2018-06-11T00:44:36.748Z,98878.44
2018-06-11T00:47:05.325Z,98880.83
2018-06-11T00:49:33.955Z,98872.28
2018-06-11T00:52:02.879Z,98866.97
2018-06-11T00:54:31.478Z,98855.85
2018-06-11T00:57:00.023Z,98852.05
2018-06-11T00:59:28.605Z,98851.04
2018-06-11T01:01:57.174Z,98853.55
2018-06-11T01:04:25.722Z,98844.86
2018-06-11T01:06:54.310Z,98844.36
2018-06-11T01:09:22.865Z,98836.06
2018-06-11T01:11:51.449Z,98832.89
2018-06-11T01:14:20.011Z,98828.64
2018-06-11T01:16:48.594Z,98832.28
2018-06-11T01:19:17.168Z,98839.28
2018-06-11T01:21:45.755Z,98844.60
2018-06-11T01:24:14.305Z,98845.54
2018-06-11T01:26:42.897Z,98842.02
2018-06-11T01:29:11.443Z,98843.08
2018-06-11T01:31:40.029Z,98839.91
2018-06-11T01:34:08.596Z,98837.95
2018-06-11T01:36:37.197Z,98830.98
2018-06-11T01:39:07.578Z,98832.70
2018-06-11T01:41:36.297Z,98829.98
2018-06-11T01:44:04.854Z,98832.95
2018-06-11T01:46:33.438Z,98828.61
2018-06-11T01:49:01.991Z,98823.80
2018-06-11T01:51:30.578Z,98826.52
2018-06-11T01:53:59.123Z,98825.32
2018-06-11T01:56:27.700Z,98825.32
2018-06-11T01:58:56.285Z,98815.41
2018-06-11T02:01:24.873Z,98812.25
2018-06-11T02:03:53.410Z,98811.70
2018-06-11T02:06:21.984Z,98817.84
2018-06-11T02:08:50.553Z,98815.50
2018-06-11T02:11:19.132Z,98808.66
2018-06-11T02:13:47.708Z,98817.06
2018-06-11T02:16:16.290Z,98807.88
2018-06-11T02:18:45.668Z,98813.31
2018-06-11T02:21:14.247Z,98816.33
2018-06-11T02:23:42.788Z,98816.17
2018-06-11T02:26:11.374Z,98817.50
2018-06-11T02:28:39.929Z,98815.11
2018-06-11T02:31:08.497Z,98813.82
2018-06-11T02:33:37.036Z,98810.45
2018-06-11T02:36:05.674Z,98817.93
2018-06-11T02:38:34.240Z,98810.81
2018-06-11T02:41:02.901Z,98805.49
2018-06-11T02:43:31.443Z,98803.85
2018-06-11T02:46:00.042Z,98802.17
2018-06-11T02:48:28.582Z,98795.68
2018-06-11T02:50:57.192Z,98789.34
2018-06-11T02:53:25.777Z,98784.50
2018-06-11T02:55:54.335Z,98795.30
2018-06-11T02:58:23.236Z,98801.94
2018-06-11T03:00:51.805Z,98803.58
2018-06-11T03:03:20.396Z,98799.90
2018-06-11T03:05:48.986Z,98802.05
2018-06-11T03:08:17.588Z,98803.63
2018-06-11T03:10:46.167Z,98800.88
2018-06-11T03:13:15.852Z,98802.82
2018-06-11T03:15:44.418Z,98804.81
2018-06-11T03:18:13.019Z,98807.42
2018-06-11T03:20:41.573Z,98797.35
2018-06-11T03:23:10.209Z,98804.11
2018-06-11T03:25:38.762Z,98795.62
2018-06-11T03:28:07.373Z,98788.30
2018-06-11T03:30:35.950Z,98791.47
2018-06-11T03:33:04.553Z,98784.84
2018-06-11T03:35:33.129Z,98780.79
2018-06-11T03:38:01.713Z,98779.25
2018-06-11T03:40:30.271Z,98779.06
2018-06-11T03:42:58.877Z,98772.83
2018-06-11T03:45:27.433Z,98773.28
2018-06-11T03:47:56.016Z,98783.55
2018-06-11T03:50:24.577Z,98783.28
2018-06-11T03:52:53.190Z,98783.99
2018-06-11T03:55:21.765Z,98780.31
2018-06-11T03:57:50.369Z,98786.41
2018-06-11T04:00:18.964Z,98787.69
2018-06-11T04:02:47.545Z,98790.34
2018-06-11T04:05:16.085Z,98786.00
2018-06-11T04:07:44.722Z,98783.55
2018-06-11T04:10:13.285Z,98777.06
2018-06-11T04:12:41.873Z,98777.88
2018-06-11T04:15:10.429Z,98784.83
2018-06-11T04:17:39.034Z,98779.00
2018-06-11T04:20:07.607Z,98780.89
2018-06-11T04:22:36.202Z,98783.91
2018-06-11T04:25:04.753Z,98779.45
2018-06-11T04:27:33.337Z,98779.77
2018-06-11T04:30:01.903Z,98780.07
2018-06-11T04:32:30.477Z,98775.22
2018-06-11T04:34:59.020Z,98776.20
2018-06-11T04:37:27.617Z,98782.42
2018-06-11T04:39:56.216Z,98785.23
2018-06-11T04:42:24.769Z,98790.59
2018-06-11T04:44:53.349Z,98787.66
2018-06-11T04:47:21.913Z,98788.64
2018-06-11T04:49:53.795Z,98788.05
2018-06-11T04:52:22.430Z,98792.55
2018-06-11T04:54:51.024Z,98792.45
2018-06-11T04:57:19.589Z,98789.89
2018-06-11T04:59:48.194Z,98791.34
2018-06-11T05:02:17.047Z,98785.16
2018-06-11T05:04:49.706Z,98785.03
2018-06-11T05:07:18.465Z,98777.22
2018-06-11T05:09:47.122Z,98778.76
2018-06-11T05:12:16.252Z,98775.06
2018-06-11T05:14:44.857Z,98776.91
2018-06-11T05:17:13.407Z,98774.58
2018-06-11T05:19:43.513Z,98771.60
2018-06-11T05:22:12.056Z,98777.25
2018-06-11T05:24:40.626Z,98779.59
2018-06-11T05:27:09.169Z,98777.95
2018-06-11T05:29:37.730Z,98782.25
2018-06-11T05:32:06.497Z,98776.77
2018-06-11T05:34:35.181Z,98763.77
2018-06-11T05:37:04.022Z,98774.27
2018-06-11T05:39:32.592Z,98771.30
2018-06-11T05:42:01.161Z,98767.78
2018-06-11T05:44:29.720Z,98770.61
2018-06-11T05:47:01.125Z,98771.61
2018-06-11T05:49:29.693Z,98765.00
2018-06-11T05:51:58.249Z,98764.63
2018-06-11T05:54:26.810Z,98771.29
2018-06-11T05:56:55.357Z,98774.48
2018-06-11T05:59:23.952Z,98779.32
2018-06-11T06:01:52.623Z,98778.62
2018-06-11T06:04:21.195Z,98773.93
2018-06-11T06:06:49.739Z,98780.92
2018-06-11T06:09:18.335Z,98779.58
2018-06-11T06:11:46.872Z,98783.41
2018-06-11T06:14:17.252Z,98792.41
2018-06-11T06:16:46.783Z,98795.36
2018-06-11T06:19:16.814Z,98800.84
2018-06-11T06:21:46.551Z,98798.83
2018-06-11T06:24:15.131Z,98804.16
2018-06-11T06:26:44.588Z,98805.64
2018-06-11T06:29:13.133Z,98801.61
2018-06-11T06:31:41.660Z,98797.44
2018-06-11T06:34:10.285Z,98797.74
2018-06-11T06:36:38.795Z,98803.86
2018-06-11T06:39:09.142Z,98802.35
2018-06-11T06:41:37.922Z,98802.84
2018-06-11T06:44:06.510Z,98810.63
2018-06-11T06:46:35.279Z,98814.76
2018-06-11T06:49:03.855Z,98823.54
2018-06-11T06:51:32.409Z,98820.35
2018-06-11T06:54:00.954Z,98823.55
2018-06-11T06:56:29.532Z,98822.69
2018-06-11T06:58:58.112Z,98821.82
2018-06-11T07:01:26.696Z,98822.12
2018-06-11T07:03:55.255Z,98811.42
2018-06-11T07:06:23.843Z,98806.04
2018-06-11T07:08:52.388Z,98811.87
2018-06-11T07:11:20.965Z,98816.23
2018-06-11T07:13:49.518Z,98814.70
2018-06-11T07:16:18.121Z,98816.70
2018-06-11T07:18:46.742Z,98817.05
2018-06-11T07:21:15.325Z,98817.23
2018-06-11T07:23:43.876Z,98819.84
2018-06-11T07:26:12.486Z,98822.77
2018-06-11T07:28:41.060Z,98817.20
2018-06-11T07:31:09.653Z,98810.00
2018-06-11T07:33:38.233Z,98805.06
2018-06-11T07:36:06.823Z,98797.72
2018-06-11T07:38:35.653Z,98804.33
2018-06-11T07:41:04.311Z,98810.31
2018-06-11T07:43:32.827Z,98800.08
2018-06-11T07:46:01.429Z,98800.34
2018-06-11T07:48:30.030Z,98789.92
2018-06-11T07:50:58.617Z,98788.75
2018-06-11T07:53:27.182Z,98784.38
2018-06-11T07:55:55.781Z,98784.30
2018-06-11T07:58:24.345Z,98773.47
2018-06-11T08:00:52.923Z,98769.33
2018-06-11T08:03:21.484Z,98774.13
2018-06-11T08:05:50.074Z,98773.73
2018-06-11T08:08:18.623Z,98781.30
2018-06-11T08:10:47.190Z,98781.25
2018-06-11T08:13:16.809Z,98770.27
2018-06-11T08:15:45.386Z,98777.05
2018-06-11T08:18:13.936Z,98779.59
2018-06-11T08:20:42.540Z,98777.02
2018-06-11T08:23:11.094Z,98772.64
2018-06-11T08:25:39.670Z,98768.06
2018-06-11T08:28:08.229Z,98766.91
2018-06-11T08:30:36.796Z,98758.41
2018-06-11T08:33:05.409Z,98752.23
2018-06-11T08:35:38.324Z,98743.30
2018-06-11T08:38:07.129Z,98744.97
2018-06-11T08:40:35.682Z,98748.72
2018-06-11T08:43:04.230Z,98749.69
2018-06-11T08:45:32.789Z,98757.11
2018-06-11T08:48:01.323Z,98760.73
2018-06-11T08:50:29.905Z,98766.91
2018-06-11T08:52:58.466Z,98769.05
2018-06-11T08:55:26.998Z,98763.05
2018-06-11T08:57:55.588Z,98765.38
2018-06-11T09:00:24.230Z,98762.69
2018-06-11T09:02:52.794Z,98756.91
2018-06-11T09:05:21.329Z,98749.25
2018-06-11T09:07:49.893Z,98750.98
2018-06-11T09:10:18.436Z,98746.83
2018-06-11T09:12:47.946Z,98742.36
2018-06-11T09:15:16.473Z,98744.68
2018-06-11T09:17:45.033Z,98734.61
2018-06-11T09:20:13.580Z,98745.27
2018-06-11T09:22:42.172Z,98744.17
2018-06-11T09:25:10.782Z,98746.63
2018-06-11T09:27:39.373Z,98740.42
2018-06-11T09:30:07.921Z,98742.61
2018-06-11T09:32:36.485Z,98743.03
2018-06-11T09:35:05.029Z,98749.83
2018-06-11T09:37:33.619Z,98741.36
2018-06-11T09:40:02.158Z,98742.09
2018-06-11T09:42:30.729Z,98742.62
2018-06-11T09:44:59.280Z,98734.84
2018-06-11T09:47:27.836Z,98739.20
2018-06-11T09:49:56.381Z,98737.97
2018-06-11T09:52:24.941Z,98732.45
2018-06-11T09:54:53.468Z,98725.02
2018-06-11T09:57:22.025Z,98726.68
2018-06-11T09:59:50.601Z,98722.28
2018-06-11T10:02:19.188Z,98720.53
2018-06-11T10:04:48.033Z,98713.66
2018-06-11T10:07:16.629Z,98709.81
2018-06-11T10:09:45.173Z,98706.01
2018-06-11T10:12:13.794Z,98698.73
2018-06-11T10:14:42.357Z,98699.47
2018-06-11T10:17:10.959Z,98708.05
2018-06-11T10:19:39.512Z,98714.77
2018-06-11T10:22:08.164Z,98717.89
2018-06-11T10:24:36.732Z,98710.48
2018-06-11T10:27:05.328Z,98696.23
2018-06-11T10:29:33.852Z,98691.24
2018-06-11T10:32:02.409Z,98694.56
2018-06-11T10:34:30.936Z,98688.61
2018-06-11T10:36:59.526Z,98690.70
2018-06-11T10:39:28.050Z,98687.66
2018-06-11T10:41:56.621Z,98681.77
2018-06-11T10:44:25.181Z,98669.59
2018-06-11T10:46:53.717Z,98662.68
2018-06-11T10:49:22.269Z,98661.47
2018-06-11T10:51:50.801Z,98661.02
2018-06-11T10:54:19.369Z,98660.76
2018-06-11T10:56:48.855Z,98657.55
2018-06-11T10:59:17.479Z,98650.23
2018-06-11T11:01:46.024Z,98651.07
2018-06-11T11:04:14.651Z,98648.55
2018-06-11T11:06:43.223Z,98654.30
2018-06-11T11:09:11.826Z,98651.08
2018-06-11T11:11:40.437Z,98655.48
2018-06-11T11:14:09.033Z,98665.98
2018-06-11T11:16:37.572Z,98678.16
2018-06-11T11:19:06.329Z,98674.25
2018-06-11T11:21:34.899Z,98662.91
2018-06-11T11:24:03.494Z,98656.05
2018-06-11T11:26:32.370Z,98648.43
2018-06-11T11:29:00.958Z,98657.38
2018-06-11T11:31:30.401Z,98674.46
2018-06-11T11:33:58.986Z,98752.30
2018-06-11T11:36:29.521Z,98738.48
2018-06-11T11:38:58.136Z,98778.98
2018-06-11T11:41:26.677Z,98844.41
2018-06-11T11:43:55.253Z,98766.02
2018-06-11T11:46:23.796Z,98702.22
2018-06-11T11:48:52.388Z,98693.03
2018-06-11T11:51:20.942Z,98682.21
2018-06-11T11:53:49.526Z,98684.11
2018-06-11T11:56:19.115Z,98681.52
2018-06-11T11:58:47.737Z,98694.81
2018-06-11T12:01:16.277Z,98707.60
2018-06-11T12:03:44.860Z,98716.16
2018-06-11T12:06:13.424Z,98709.17
2018-06-11T12:08:42.041Z,98698.36
2018-06-11T12:11:10.601Z,98693.37
2018-06-11T12:13:40.614Z,98707.28
2018-06-11T12:16:12.235Z,98711.17
2018-06-11T12:18:42.623Z,98705.05
2018-06-11T12:21:13.560Z,98698.42
2018-06-11T12:23:42.232Z,98685.59
2018-06-11T12:26:15.027Z,98684.94
2018-06-11T12:28:46.297Z,98677.45
2018-06-11T12:31:14.972Z,98673.26
2018-06-11T12:33:43.963Z,98666.44
2018-06-11T12:36:12.533Z,98669.24
2018-06-11T12:38:45.302Z,98680.75
2018-06-11T12:41:19.033Z,98684.06
2018-06-11T12:43:51.065Z,98675.59
2018-06-11T12:46:30.802Z,98676.41
2018-06-11T12:49:15.012Z,98674.38
2018-06-11T12:51:55.899Z,98666.92
2018-06-11T12:54:38.613Z,98663.62
2018-06-11T12:57:19.714Z,98672.28
2018-06-11T12:59:59.891Z,98676.43
2018-06-11T13:02:40.924Z,98671.44
2018-06-11T13:05:19.660Z,98668.45
2018-06-11T13:07:59.590Z,98665.75
2018-06-11T13:10:37.065Z,98660.43
2018-06-11T13:13:19.049Z,98656.62
2018-06-11T13:15:55.561Z,98660.30
2018-06-11T13:18:34.211Z,98657.64
2018-06-11T13:21:12.065Z,98653.99
2018-06-11T13:23:50.284Z,98648.00
2018-06-11T13:26:31.791Z,98655.00
2018-06-11T13:29:14.321Z,98665.73
2018-06-11T13:31:52.521Z,98681.08
2018-06-11T13:34:32.027Z,98737.67
2018-06-11T13:37:10.526Z,98748.73
2018-06-11T13:39:54.857Z,98768.63
2018-06-11T13:42:38.968Z,98775.16
2018-06-11T13:45:15.389Z,98761.39
2018-06-11T13:47:43.957Z,98772.69
2018-06-11T13:50:17.242Z,98774.65
2018-06-11T13:52:45.800Z,98774.16
2018-06-11T13:55:14.382Z,98771.54
2018-06-11T13:57:42.984Z,98762.64
2018-06-11T14:00:11.607Z,98750.53
2018-06-11T14:02:40.224Z,98733.80
2018-06-11T14:05:08.808Z,98715.53
2018-06-11T14:07:37.372Z,98713.91
2018-06-11T14:10:05.961Z,98722.71
2018-06-11T14:12:34.497Z,98735.72
2018-06-11T14:15:03.115Z,98748.51
2018-06-11T14:17:31.673Z,98749.11
2018-06-11T14:20:00.265Z,98746.99
2018-06-11T14:22:28.881Z,98748.45
2018-06-11T14:24:57.493Z,98745.09
2018-06-11T14:27:26.040Z,98748.88
2018-06-11T14:29:54.643Z,98754.27
2018-06-11T14:32:23.256Z,98753.75
2018-06-11T14:35:04.330Z,98751.42
2018-06-11T14:40:34.274Z,98756.98
2018-06-11T14:43:22.828Z,98766.09
2018-06-11T14:46:00.488Z,98770.47
2018-06-11T14:48:44.625Z,98773.48
2018-06-11T14:51:30.439Z,98780.70
2018-06-11T14:54:19.717Z,98786.10
2018-06-11T14:57:04.452Z,98785.53
2018-06-11T14:59:49.955Z,98776.00
2018-06-11T15:02:23.316Z,98771.23
2018-06-11T15:04:58.473Z,98762.59
2018-06-11T15:07:27.713Z,98761.27
2018-06-11T15:09:56.242Z,98758.66
2018-06-11T15:12:24.849Z,98751.86
2018-06-11T15:14:53.378Z,98756.86
2018-06-11T15:17:21.942Z,98762.52
2018-06-11T15:20:07.361Z,98768.39
2018-06-11T15:22:54.119Z,98761.86
2018-06-11T15:25:23.681Z,98752.68
2018-06-11T15:27:59.088Z,98750.25
2018-06-11T15:30:28.693Z,98754.81
2018-06-11T15:32:59.821Z,98745.47
2018-06-11T15:35:32.008Z,98742.27
2018-06-11T15:38:00.709Z,98738.25
2018-06-11T15:40:29.246Z,98733.86
2018-06-11T15:43:04.065Z,98734.70
2018-06-11T15:45:32.680Z,98732.20
2018-06-11T15:48:01.269Z,98725.50
2018-06-11T15:50:29.833Z,98724.20
2018-06-11T15:52:58.422Z,98732.87
2018-06-11T15:55:32.244Z,98730.23
2018-06-11T15:58:00.836Z,98733.22
2018-06-11T16:00:29.407Z,98730.71
2018-06-11T16:02:58.175Z,98738.92
2018-06-11T16:05:27.058Z,98733.98
2018-06-11T16:07:55.672Z,98735.80
2018-06-11T16:10:24.247Z,98736.63
2018-06-11T16:12:52.813Z,98722.99
2018-06-11T16:15:22.045Z,98724.47
2018-06-11T16:17:50.617Z,98727.20
2018-06-11T16:20:19.162Z,98722.58
2018-06-11T16:22:47.729Z,98722.92
2018-06-11T16:25:16.262Z,98716.67
2018-06-11T16:27:44.879Z,98717.66
2018-06-11T16:30:13.407Z,98720.34
2018-06-11T16:32:43.914Z,98714.51
2018-06-11T16:35:12.467Z,98706.55
2018-06-11T16:37:41.027Z,98695.22
2018-06-11T16:40:09.568Z,98689.73
2018-06-11T16:42:38.127Z,98691.38
2018-06-11T16:45:07.047Z,98687.05
2018-06-11T16:47:35.617Z,98681.59
2018-06-11T16:50:04.233Z,98682.09
2018-06-11T16:52:32.757Z,98677.70
2018-06-11T16:55:01.356Z,98681.40
2018-06-11T16:57:29.909Z,98680.76
2018-06-11T16:59:58.530Z,98674.44
2018-06-11T17:02:27.085Z,98675.94
2018-06-11T17:04:55.658Z,98676.44
2018-06-11T17:07:24.200Z,98672.44
2018-06-11T17:09:52.817Z,98668.79
2018-06-11T17:12:27.375Z,98666.95
2018-06-11T17:14:57.469Z,98672.13
2018-06-11T17:17:26.076Z,98665.47
2018-06-11T17:20:00.055Z,98670.13
2018-06-11T17:22:28.635Z,98668.13
2018-06-11T17:24:57.305Z,98663.12
2018-06-11T17:27:25.970Z,98666.63
2018-06-11T17:29:54.585Z,98673.44
2018-06-11T17:32:23.145Z,98667.61
2018-06-11T17:34:52.331Z,98665.14
2018-06-11T17:37:20.892Z,98661.98
2018-06-11T17:39:49.514Z,98659.31
2018-06-11T17:42:18.062Z,98649.16
2018-06-11T17:44:49.086Z,98650.64
2018-06-11T17:47:17.636Z,98652.32
2018-06-11T17:49:46.549Z,98646.50
2018-06-11T17:52:21.997Z,98636.85
2018-06-11T17:54:58.135Z,98633.83
2018-06-11T17:57:28.161Z,98625.16
2018-06-11T18:00:05.595Z,98634.45
2018-06-11T18:02:39.063Z,98631.16
2018-06-11T18:05:11.825Z,98634.87
2018-06-11T18:07:40.585Z,98637.80
2018-06-11T18:10:11.371Z,98645.95
2018-06-11T18:12:40.017Z,98651.83
2018-06-11T18:15:08.590Z,98662.61
2018-06-11T18:17:38.758Z,98663.78
2018-06-11T18:20:08.495Z,98667.10
2018-06-11T18:22:37.121Z,98667.28
2018-06-11T18:25:05.716Z,98669.44
2018-06-11T18:27:42.284Z,98676.09
2018-06-11T18:30:12.179Z,98682.77
2018-06-11T18:32:41.073Z,98689.23
2018-06-11T18:35:09.719Z,98684.73
2018-06-11T18:37:38.240Z,98689.58
2018-06-11T18:40:09.273Z,98684.56
2018-06-11T18:42:39.035Z,98678.75
2018-06-11T18:45:08.336Z,98680.05
2018-06-11T18:47:48.536Z,98678.38
2018-06-11T18:50:17.333Z,98683.74
2018-06-11T18:52:45.868Z,98686.66
2018-06-11T18:55:18.389Z,98687.95
2018-06-11T18:57:47.101Z,98694.02
2018-06-11T19:00:15.692Z,98692.22
2018-06-11T19:05:53.383Z,98695.48
2018-06-11T19:11:03.517Z,98691.83
2018-06-11T19:13:32.065Z,98694.45
2018-06-11T19:16:00.681Z,98703.75
2018-06-11T19:18:29.217Z,98703.72
2018-06-11T19:20:57.864Z,98698.37
2018-06-11T19:23:36.175Z,98693.03
2018-06-11T19:26:15.387Z,98693.97
2018-06-11T19:28:56.992Z,98699.02
2018-06-11T19:31:43.052Z,98698.50
2018-06-11T19:34:25.181Z,98696.79
2018-06-11T19:37:05.797Z,98694.55
2018-06-11T19:39:43.267Z,98696.70
2018-06-11T19:42:23.775Z,98691.07
2018-06-11T19:45:07.064Z,98698.03
2018-06-11T19:47:51.388Z,98699.02
2018-06-11T19:50:37.190Z,98691.16
2018-06-11T19:53:19.425Z,98711.59
2018-06-11T19:55:50.421Z,98706.80
2018-06-11T19:58:19.022Z,98706.47
2018-06-11T20:00:47.552Z,98709.17
2018-06-11T20:03:16.107Z,98706.40
2018-06-11T20:05:44.705Z,98707.72
2018-06-11T20:08:13.277Z,98701.44
2018-06-11T20:10:41.814Z,98696.78
2018-06-11T20:13:10.973Z,98697.37
2018-06-11T20:15:39.534Z,98695.33
2018-06-11T20:18:08.302Z,98704.86
2018-06-11T20:20:36.905Z,98703.66
2018-06-11T20:23:05.502Z,98696.50
2018-06-11T20:25:34.061Z,98697.63
2018-06-11T20:28:02.697Z,98703.80
2018-06-11T20:30:31.247Z,98704.98
2018-06-11T20:32:59.809Z,98712.64
2018-06-11T20:35:28.367Z,98710.60
2018-06-11T20:37:56.911Z,98708.83
2018-06-11T20:40:25.466Z,98706.17
2018-06-11T20:42:54.208Z,98710.45
2018-06-11T20:45:22.770Z,98709.73
2018-06-11T20:47:51.293Z,98702.75
2018-06-11T20:50:19.861Z,98699.02
2018-06-11T20:52:48.396Z,98694.21
2018-06-11T20:55:16.960Z,98689.10
2018-06-11T20:57:45.516Z,98694.42
2018-06-11T21:00:14.037Z,98696.05
2018-06-11T21:02:49.626Z,98688.80
2018-06-11T21:05:18.658Z,98691.71
2018-06-11T21:07:47.237Z,98692.12
2018-06-11T21:10:15.813Z,98699.00
2018-06-11T21:12:48.584Z,98694.36
2018-06-11T21:15:17.137Z,98701.73
2018-06-11T21:17:45.722Z,98701.66
2018-06-11T21:20:14.289Z,98699.39
2018-06-11T21:22:42.876Z,98693.94
2018-06-11T21:25:11.474Z,98701.83
2018-06-11T21:27:40.054Z,98701.89
2018-06-11T21:30:08.616Z,98703.59
2018-06-11T21:32:37.489Z,98703.89
2018-06-11T21:35:06.099Z,98706.09
2018-06-11T21:37:34.725Z,98707.64
2018-06-11T21:40:03.317Z,98714.55
2018-06-11T21:42:31.921Z,98714.11
2018-06-11T21:45:00.497Z,98719.07
2018-06-11T21:47:29.101Z,98719.14
2018-06-11T21:49:57.644Z,98724.36
2018-06-11T21:52:26.250Z,98727.81
2018-06-11T21:54:54.804Z,98725.08
2018-06-11T21:57:24.441Z,98726.42
2018-06-11T21:59:56.622Z,98731.27
2018-06-11T22:02:25.419Z,98727.14
2018-06-11T22:04:54.541Z,98730.17
2018-06-11T22:07:23.136Z,98727.75
2018-06-11T22:09:51.707Z,98730.03
2018-06-11T22:12:20.325Z,98731.41
2018-06-11T22:14:48.877Z,98722.42
2018-06-11T22:17:17.473Z,98728.41
2018-06-11T22:19:46.084Z,98731.03
2018-06-11T22:22:14.688Z,98729.38
2018-06-11T22:24:43.272Z,98736.36
2018-06-11T22:27:11.853Z,98738.80
2018-06-11T22:29:40.470Z,98732.83
2018-06-11T22:32:09.040Z,98736.57
2018-06-11T22:34:37.653Z,98740.63
2018-06-11T22:37:06.217Z,98735.19
2018-06-11T22:39:34.801Z,98732.12
2018-06-11T22:42:03.637Z,98730.30
2018-06-11T22:44:32.237Z,98723.93
2018-06-11T22:47:00.833Z,98723.45
2018-06-11T22:49:29.437Z,98725.88
2018-06-11T22:51:58.093Z,98726.20
2018-06-11T22:54:26.704Z,98733.13
2018-06-11T22:56:55.507Z,98723.98
2018-06-11T22:59:24.170Z,98733.09
2018-06-11T23:01:52.741Z,98730.53
2018-06-11T23:04:21.353Z,98719.54
2018-06-11T23:06:49.965Z,98712.91
2018-06-11T23:09:18.641Z,98711.62
2018-06-11T23:11:47.249Z,98713.88
2018-06-11T23:14:15.867Z,98707.94
2018-06-11T23:16:44.476Z,98702.52
2018-06-11T23:19:13.174Z,98699.86
2018-06-11T23:21:41.784Z,98703.22
2018-06-11T23:24:10.413Z,98707.41
2018-06-11T23:26:39.008Z,98704.95
2018-06-11T23:29:07.616Z,98698.48
2018-06-11T23:31:36.182Z,98694.38
2018-06-11T23:34:05.125Z,98696.95
2018-06-11T23:36:33.701Z,98697.47
2018-06-11T23:39:02.454Z,98690.22
2018-06-11T23:41:31.076Z,98688.78
2018-06-11T23:43:59.721Z,98688.28
2018-06-11T23:46:28.377Z,98701.89
2018-06-11T23:48:57.130Z,98695.97
2018-06-11T23:51:25.772Z,98706.28
2018-06-11T23:53:54.727Z,98701.06
2018-06-11T23:56:23.573Z,98701.00
2018-06-11T23:58:52.295Z,98703.66
